createdAt,value
2023-05-04T00:00:22.482Z,100075.00
2023-05-04T00:01:55.785Z,100062.00
2023-05-04T00:03:29.048Z,100068.00
2023-05-04T00:05:02.457Z,100069.00
2023-05-04T00:06:36.981Z,100061.00
2023-05-04T00:08:10.055Z,100060.00
2023-05-04T00:09:42.456Z,100054.00
2023-05-04T00:11:15.860Z,100059.00
2023-05-04T00:12:49.002Z,100058.00
2023-05-04T00:14:22.126Z,100054.00
2023-05-04T00:15:55.244Z,100052.00
2023-05-04T00:17:28.470Z,100036.00
2023-05-04T00:19:01.592Z,100048.00
2023-05-04T00:20:34.972Z,100046.00
2023-05-04T00:22:09.515Z,100046.00
2023-05-04T00:23:42.677Z,100047.00
2023-05-04T00:25:15.870Z,100041.00
2023-05-04T00:26:48.207Z,100048.00
2023-05-04T00:28:21.276Z,100043.00
2023-05-04T00:29:54.366Z,100041.00
2023-05-04T00:31:27.476Z,100039.00
2023-05-04T00:33:00.773Z,100041.00
2023-05-04T00:34:34.605Z,100046.00
2023-05-04T00:36:08.619Z,100038.00
2023-05-04T00:37:43.677Z,100037.00
2023-05-04T00:39:15.851Z,100035.00
2023-05-04T00:40:48.917Z,100037.00
2023-05-04T00:42:22.083Z,100040.00
2023-05-04T00:43:55.182Z,100031.00
2023-05-04T00:45:27.819Z,100026.00
2023-05-04T00:47:01.107Z,100035.00
2023-05-04T00:48:34.355Z,100033.00
2023-05-04T00:50:09.904Z,100033.00
2023-05-04T00:51:42.507Z,100028.00
2023-05-04T00:53:17.069Z,100032.00
2023-05-04T00:54:50.833Z,100024.00
2023-05-04T00:56:24.381Z,100029.00
2023-05-04T00:57:57.667Z,100010.00
2023-05-04T00:59:30.809Z,100022.00
2023-05-04T01:01:04.562Z,100020.00
2023-05-04T01:02:37.752Z,100031.00
2023-05-04T01:04:11.765Z,100017.00
2023-05-04T01:05:59.735Z,100012.00
2023-05-04T01:07:43.535Z,100008.00
2023-05-04T01:09:29.227Z,100014.00
2023-05-04T01:11:10.479Z,100018.00
2023-05-04T01:12:52.259Z,100012.00
2023-05-04T01:14:26.353Z,100016.00
2023-05-04T01:16:00.928Z,100016.00
2023-05-04T01:17:34.261Z,100008.00
2023-05-04T01:19:07.517Z,100014.00
2023-05-04T01:20:40.826Z,100014.00
2023-05-04T01:22:15.214Z,100004.00
2023-05-04T01:23:47.601Z,99996.00
2023-05-04T01:25:21.347Z,100007.00
2023-05-04T01:27:02.259Z,100002.00
2023-05-04T01:28:44.520Z,100014.00
2023-05-04T01:30:23.786Z,100001.00
2023-05-04T01:31:58.601Z,100013.00
2023-05-04T01:33:33.404Z,100009.00
2023-05-04T01:35:08.469Z,100003.00
2023-05-04T01:36:42.790Z,100017.00
2023-05-04T01:38:17.272Z,100014.00
2023-05-04T01:39:50.420Z,100020.00
2023-05-04T01:41:22.569Z,100018.00
2023-05-04T01:42:55.850Z,100001.00
2023-05-04T01:44:29.297Z,100009.00
2023-05-04T01:46:02.461Z,100016.00
2023-05-04T01:47:35.871Z,100013.00
2023-05-04T01:49:09.053Z,100017.00
2023-05-04T01:50:42.272Z,100007.00
2023-05-04T01:52:15.687Z,100008.00
2023-05-04T01:53:50.140Z,100014.00
2023-05-04T01:55:23.332Z,100009.00
2023-05-04T01:56:56.443Z,100001.00
2023-05-04T01:58:29.758Z,100002.00
2023-05-04T02:00:03.793Z,100011.00
2023-05-04T02:01:48.693Z,99997.00
2023-05-04T02:03:21.035Z,100001.00
2023-05-04T02:04:54.604Z,99999.00
2023-05-04T02:06:27.659Z,100002.00
2023-05-04T02:07:59.927Z,100008.00
2023-05-04T02:09:35.253Z,100006.00
2023-05-04T02:11:08.392Z,99999.00
2023-05-04T02:12:42.866Z,100002.00
2023-05-04T02:14:16.059Z,100008.00
2023-05-04T02:15:49.228Z,100000.00
2023-05-04T02:17:22.576Z,100002.00
2023-05-04T02:18:55.973Z,100004.00
2023-05-04T02:20:29.154Z,100008.00
2023-05-04T02:22:01.358Z,100003.00
2023-05-04T02:23:34.760Z,99996.00
2023-05-04T02:25:09.279Z,99994.00
2023-05-04T02:26:43.290Z,99995.00
2023-05-04T02:28:16.724Z,99995.00
2023-05-04T02:29:49.022Z,99993.00
2023-05-04T02:31:22.214Z,99992.00
2023-05-04T02:32:55.508Z,99981.00
2023-05-04T02:34:27.706Z,99982.00
2023-05-04T02:36:00.899Z,99974.00
2023-05-04T02:37:34.050Z,99982.00
2023-05-04T02:39:09.996Z,99978.00
2023-05-04T02:40:44.761Z,99986.00
2023-05-04T02:42:19.955Z,99975.00
2023-05-04T02:43:53.121Z,99979.00
2023-05-04T02:45:26.317Z,99983.00
2023-05-04T02:46:58.573Z,99982.00
2023-05-04T02:48:32.443Z,99987.00
2023-05-04T02:50:07.552Z,99982.00
2023-05-04T02:51:41.364Z,99984.00
2023-05-04T02:53:14.705Z,99982.00
2023-05-04T02:54:48.004Z,99975.00
2023-05-04T02:56:22.548Z,99983.00
2023-05-04T02:57:55.861Z,99979.00
2023-05-04T02:59:28.967Z,99981.00
2023-05-04T03:01:02.238Z,99986.00
2023-05-04T03:02:35.575Z,99982.00
2023-05-04T03:04:09.156Z,99984.00
2023-05-04T03:05:42.232Z,99988.00
2023-05-04T03:07:17.187Z,99986.00
2023-05-04T03:08:50.607Z,99981.00
2023-05-04T03:10:23.796Z,99974.00
2023-05-04T03:11:58.326Z,99978.00
2023-05-04T03:13:31.483Z,99969.00
2023-05-04T03:15:04.161Z,99981.00
2023-05-04T03:16:37.876Z,99972.00
2023-05-04T03:18:11.335Z,99968.00
2023-05-04T03:19:44.847Z,99974.00
2023-05-04T03:21:19.755Z,99972.00
2023-05-04T03:22:52.883Z,99978.00
2023-05-04T03:24:26.868Z,99979.00
2023-05-04T03:25:59.067Z,99969.00
2023-05-04T03:27:33.759Z,99972.00
2023-05-04T03:29:06.996Z,99978.00
2023-05-04T03:30:40.175Z,99976.00
2023-05-04T03:32:13.928Z,99968.00
2023-05-04T03:33:46.802Z,99973.00
2023-05-04T03:35:24.690Z,99969.00
2023-05-04T03:37:00.354Z,99970.00
2023-05-04T03:38:33.527Z,99968.00
2023-05-04T03:40:08.294Z,99974.00
2023-05-04T03:41:41.525Z,99963.00
2023-05-04T03:43:16.172Z,99962.00
2023-05-04T03:44:49.245Z,99959.00
2023-05-04T03:46:22.334Z,99957.00
2023-05-04T03:47:55.738Z,99965.00
2023-05-04T03:49:29.010Z,99955.00
2023-05-04T03:51:02.276Z,99964.00
2023-05-04T03:52:35.538Z,99956.00
2023-05-04T03:54:08.906Z,99954.00
2023-05-04T03:55:41.963Z,99953.00
2023-05-04T03:57:15.098Z,99950.00
2023-05-04T03:58:49.265Z,99949.00
2023-05-04T04:00:27.126Z,99945.00
2023-05-04T04:02:07.526Z,99945.00
2023-05-04T04:03:41.933Z,99940.00
2023-05-04T04:05:15.217Z,99943.00
2023-05-04T04:06:48.593Z,99948.00
2023-05-04T04:08:21.871Z,99951.00
2023-05-04T04:09:54.996Z,99956.00
2023-05-04T04:11:28.110Z,99956.00
2023-05-04T04:13:01.386Z,99951.00
2023-05-04T04:14:35.839Z,99946.00
2023-05-04T04:16:09.211Z,99940.00
2023-05-04T04:17:42.342Z,99951.00
2023-05-04T04:19:15.725Z,99944.00
2023-05-04T04:20:48.871Z,99947.00
2023-05-04T04:22:22.363Z,99946.00
2023-05-04T04:23:55.459Z,99945.00
2023-05-04T04:25:28.174Z,99950.00
2023-05-04T04:27:01.818Z,99955.00
2023-05-04T04:28:35.223Z,99954.00
2023-05-04T04:30:10.788Z,99955.00
2023-05-04T04:31:43.955Z,99949.00
2023-05-04T04:33:17.130Z,99954.00
2023-05-04T04:34:50.265Z,99954.00
2023-05-04T04:36:23.535Z,99952.00
2023-05-04T04:37:56.647Z,99958.00
2023-05-04T04:39:29.793Z,99947.00
2023-05-04T04:41:03.087Z,99956.00
2023-05-04T04:42:36.347Z,99959.00
2023-05-04T04:44:09.510Z,99957.00
2023-05-04T04:45:45.071Z,99958.00
2023-05-04T04:47:18.218Z,99963.00
2023-05-04T04:48:53.316Z,99961.00
2023-05-04T04:50:26.515Z,99956.00
2023-05-04T04:51:59.631Z,99960.00
2023-05-04T04:53:32.779Z,99955.00
2023-05-04T04:55:07.697Z,99959.00
2023-05-04T04:56:41.708Z,99951.00
2023-05-04T04:58:14.726Z,99950.00
2023-05-04T04:59:48.139Z,99949.00
2023-05-04T05:01:22.591Z,99948.00
2023-05-04T05:02:56.410Z,99951.00
2023-05-04T05:04:29.621Z,99956.00
2023-05-04T05:06:03.937Z,99955.00
2023-05-04T05:07:36.306Z,99961.00
2023-05-04T05:09:09.825Z,99955.00
2023-05-04T05:10:44.109Z,99951.00
2023-05-04T05:12:17.380Z,99945.00
2023-05-04T05:13:50.692Z,99947.00
2023-05-04T05:15:23.847Z,99951.00
2023-05-04T05:16:58.698Z,99950.00
2023-05-04T05:18:32.112Z,99944.00
2023-05-04T05:20:09.874Z,99939.00
2023-05-04T05:21:43.007Z,99937.00
2023-05-04T05:23:16.345Z,99936.00
2023-05-04T05:24:49.552Z,99925.00
2023-05-04T05:26:22.703Z,99942.00
2023-05-04T05:27:55.800Z,99943.00
2023-05-04T05:29:28.940Z,99940.00
2023-05-04T05:31:02.328Z,99944.00
2023-05-04T05:32:36.910Z,99941.00
2023-05-04T05:34:10.189Z,99937.00
2023-05-04T05:35:43.788Z,99938.00
2023-05-04T05:37:16.910Z,99938.00
2023-05-04T05:38:50.459Z,99944.00
2023-05-04T05:40:23.751Z,99946.00
2023-05-04T05:41:58.460Z,99939.00
2023-05-04T05:43:33.302Z,99947.00
2023-05-04T05:45:08.063Z,99941.00
2023-05-04T05:46:41.396Z,99942.00
2023-05-04T05:48:16.101Z,99942.00
2023-05-04T05:49:49.237Z,99941.00
2023-05-04T05:51:22.382Z,99947.00
2023-05-04T05:52:55.808Z,99940.00
2023-05-04T05:54:31.854Z,99937.00
2023-05-04T05:56:05.211Z,99939.00
2023-05-04T05:57:38.603Z,99932.00
2023-05-04T05:59:11.745Z,99923.00
2023-05-04T06:00:44.810Z,99921.00
2023-05-04T06:02:18.093Z,99922.00
2023-05-04T06:03:52.988Z,99917.00
2023-05-04T06:05:26.436Z,99926.00
2023-05-04T06:06:59.559Z,99918.00
2023-05-04T06:08:33.635Z,99919.00
2023-05-04T06:10:08.720Z,99916.00
2023-05-04T06:11:42.021Z,99912.00
2023-05-04T06:13:16.106Z,99912.00
2023-05-04T06:14:49.306Z,99909.00
2023-05-04T06:16:25.009Z,99906.00
2023-05-04T06:17:58.474Z,99905.00
2023-05-04T06:19:35.522Z,99904.00
2023-05-04T06:21:08.931Z,99892.00
2023-05-04T06:22:42.154Z,99893.00
2023-05-04T06:24:16.038Z,99893.00
2023-05-04T06:25:49.115Z,99885.00
2023-05-04T06:27:24.154Z,99891.00
2023-05-04T06:28:57.592Z,99886.00
2023-05-04T06:30:30.952Z,99888.00
2023-05-04T06:32:04.108Z,99878.00
2023-05-04T06:33:38.080Z,99881.00
2023-05-04T06:35:13.730Z,99876.00
2023-05-04T06:36:46.920Z,99884.00
2023-05-04T06:38:20.257Z,99875.00
2023-05-04T06:39:53.355Z,99875.00
2023-05-04T06:41:26.469Z,99873.00
2023-05-04T06:42:59.696Z,99863.00
2023-05-04T06:44:38.215Z,99876.00
2023-05-04T06:46:11.630Z,99867.00
2023-05-04T06:47:44.792Z,99867.00
2023-05-04T06:49:19.115Z,99864.00
2023-05-04T06:50:54.005Z,99868.00
2023-05-04T06:52:29.578Z,99873.00
2023-05-04T06:54:03.003Z,99867.00
2023-05-04T06:55:36.520Z,99861.00
2023-05-04T06:57:09.583Z,99870.00
2023-05-04T06:58:42.757Z,99870.00
2023-05-04T07:00:16.568Z,99863.00
2023-05-04T07:01:50.135Z,99863.00
2023-05-04T07:03:23.322Z,99870.00
2023-05-04T07:04:57.043Z,99868.00
2023-05-04T07:06:32.116Z,99868.00
2023-05-04T07:08:05.674Z,99866.00
2023-05-04T07:09:39.346Z,99859.00
2023-05-04T07:11:12.781Z,99865.00
2023-05-04T07:12:45.997Z,99865.00
2023-05-04T07:14:19.177Z,99861.00
2023-05-04T07:15:52.398Z,99869.00
2023-05-04T07:17:26.838Z,99856.00
2023-05-04T07:18:59.949Z,99861.00
2023-05-04T07:20:33.271Z,99855.00
2023-05-04T07:22:07.719Z,99852.00
2023-05-04T07:23:41.040Z,99849.00
2023-05-04T07:25:14.158Z,99846.00
2023-05-04T07:26:47.288Z,99843.00
2023-05-04T07:28:20.405Z,99846.00
2023-05-04T07:29:54.046Z,99842.00
2023-05-04T07:31:29.510Z,99848.00
2023-05-04T07:33:03.557Z,99843.00
2023-05-04T07:34:45.188Z,99850.00
2023-05-04T07:36:38.541Z,99844.00
2023-05-04T07:38:13.064Z,99840.00
2023-05-04T07:39:46.443Z,99843.00
2023-05-04T07:41:19.834Z,99833.00
2023-05-04T07:42:53.000Z,99834.00
2023-05-04T07:44:26.629Z,99832.00
2023-05-04T07:45:59.772Z,99841.00
2023-05-04T07:47:33.014Z,99841.00
2023-05-04T07:49:06.543Z,99831.00
2023-05-04T07:50:39.622Z,99839.00
2023-05-04T07:52:13.558Z,99830.00
2023-05-04T07:53:48.035Z,99829.00
2023-05-04T07:55:23.062Z,99836.00
2023-05-04T07:56:56.255Z,99832.00
2023-05-04T07:58:29.616Z,99831.00
2023-05-04T08:00:04.809Z,99826.00
2023-05-04T08:01:47.317Z,99826.00
2023-05-04T08:03:20.563Z,99821.00
2023-05-04T08:04:53.735Z,99822.00
2023-05-04T08:06:26.803Z,99813.00
2023-05-04T08:08:00.167Z,99819.00
2023-05-04T08:09:34.551Z,99821.00
2023-05-04T08:11:19.462Z,99812.00
2023-05-04T08:12:53.893Z,99813.00
2023-05-04T08:14:27.148Z,99808.00
2023-05-04T08:16:01.390Z,99810.00
2023-05-04T08:17:35.485Z,99818.00
2023-05-04T08:19:08.578Z,99820.00
2023-05-04T08:20:41.954Z,99817.00
2023-05-04T08:22:15.176Z,99811.00
2023-05-04T08:23:48.460Z,99800.00
2023-05-04T08:25:23.386Z,99803.00
2023-05-04T08:27:06.955Z,99805.00
2023-05-04T08:28:41.930Z,99807.00
2023-05-04T08:30:17.031Z,99811.00
2023-05-04T08:31:51.284Z,99808.00
2023-05-04T08:33:24.669Z,99799.00
2023-05-04T08:34:57.722Z,99807.00
2023-05-04T08:36:31.665Z,99809.00
2023-05-04T08:38:05.241Z,99804.00
2023-05-04T08:39:40.492Z,99799.00
2023-05-04T08:41:17.327Z,99805.00
2023-05-04T08:42:52.190Z,99802.00
2023-05-04T08:44:25.517Z,99802.00
2023-05-04T08:45:58.797Z,99799.00
2023-05-04T08:47:31.969Z,99797.00
2023-05-04T08:49:05.267Z,99804.00
2023-05-04T08:50:39.667Z,99799.00
2023-05-04T08:52:15.237Z,99795.00
2023-05-04T08:53:51.618Z,99796.00
2023-05-04T08:55:25.262Z,99791.00
2023-05-04T08:56:59.911Z,99792.00
2023-05-04T08:58:37.664Z,99801.00
2023-05-04T09:00:13.396Z,99791.00
2023-05-04T09:01:50.553Z,99789.00
2023-05-04T09:03:24.353Z,99788.00
2023-05-04T09:04:57.735Z,99790.00
2023-05-04T09:06:32.573Z,99799.00
2023-05-04T09:08:06.759Z,99796.00
2023-05-04T09:09:39.830Z,99795.00
2023-05-04T09:11:13.641Z,99786.00
2023-05-04T09:12:48.240Z,99783.00
2023-05-04T09:14:23.505Z,99790.00
2023-05-04T09:15:57.506Z,99790.00
2023-05-04T09:17:30.853Z,99781.00
2023-05-04T09:19:05.260Z,99784.00
2023-05-04T09:20:46.648Z,99779.00
2023-05-04T09:22:21.279Z,99774.00
2023-05-04T09:23:54.288Z,99781.00
2023-05-04T09:25:27.372Z,99775.00
2023-05-04T09:27:11.756Z,99786.00
2023-05-04T09:28:46.162Z,99794.00
2023-05-04T09:30:22.392Z,99781.00
2023-05-04T09:31:55.803Z,99784.00
2023-05-04T09:33:29.198Z,99786.00
2023-05-04T09:35:03.038Z,99783.00
2023-05-04T09:36:37.199Z,99784.00
2023-05-04T09:38:10.346Z,99782.00
2023-05-04T09:39:53.580Z,99774.00
2023-05-04T09:41:34.276Z,99772.00
2023-05-04T09:43:08.327Z,99787.00
2023-05-04T09:44:43.004Z,99778.00
2023-05-04T09:46:21.017Z,99778.00
2023-05-04T09:47:55.321Z,99768.00
2023-05-04T09:49:32.889Z,99773.00
2023-05-04T09:51:08.002Z,99766.00
2023-05-04T09:52:43.141Z,99764.00
2023-05-04T09:54:19.630Z,99758.00
2023-05-04T09:56:07.926Z,99761.00
2023-05-04T09:57:43.353Z,99755.00
2023-05-04T09:59:20.298Z,99745.00
2023-05-04T10:00:55.082Z,99753.00
2023-05-04T10:02:28.842Z,99738.00
2023-05-04T10:04:02.838Z,99747.00
2023-05-04T10:05:39.881Z,99738.00
2023-05-04T10:07:13.786Z,99741.00
2023-05-04T10:08:49.100Z,99751.00
2023-05-04T10:10:22.627Z,99747.00
2023-05-04T10:11:58.843Z,99744.00
2023-05-04T10:13:33.205Z,99741.00
2023-05-04T10:15:08.897Z,99745.00
2023-05-04T10:16:53.669Z,99734.00
2023-05-04T10:18:46.432Z,99727.00
2023-05-04T10:20:41.326Z,99725.00
2023-05-04T10:22:31.785Z,99732.00
2023-05-04T10:24:55.190Z,99729.00
2023-05-04T10:26:59.523Z,99728.00
2023-05-04T10:28:46.839Z,99724.00
2023-05-04T10:30:20.769Z,99728.00
2023-05-04T10:31:56.921Z,99732.00
2023-05-04T10:33:40.543Z,99726.00
2023-05-04T10:35:14.938Z,99715.00
2023-05-04T10:36:48.622Z,99722.00
2023-05-04T10:38:32.990Z,99718.00
2023-05-04T10:40:08.270Z,99715.00
2023-05-04T10:41:41.930Z,99706.00
2023-05-04T10:43:24.760Z,99707.00
2023-05-04T10:44:58.467Z,99694.00
2023-05-04T10:46:31.500Z,99699.00
2023-05-04T10:48:07.748Z,99703.00
2023-05-04T10:49:41.145Z,99697.00
2023-05-04T10:51:22.550Z,99701.00
2023-05-04T10:52:56.770Z,99695.00
2023-05-04T10:54:31.278Z,99695.00
2023-05-04T10:56:04.722Z,99685.00
2023-05-04T10:57:49.425Z,99676.00
2023-05-04T10:59:22.659Z,99681.00
2023-05-04T11:00:56.303Z,99680.00
2023-05-04T11:02:32.427Z,99675.00
2023-05-04T11:04:08.173Z,99674.00
2023-05-04T11:05:43.205Z,99677.00
2023-05-04T11:07:16.367Z,99665.00
2023-05-04T11:09:01.166Z,99671.00
2023-05-04T11:10:34.257Z,99682.00
2023-05-04T11:12:10.319Z,99668.00
2023-05-04T11:13:47.385Z,99676.00
2023-05-04T11:15:22.468Z,99664.00
2023-05-04T11:17:19.737Z,99673.00
2023-05-04T11:19:12.285Z,99657.00
2023-05-04T11:20:45.952Z,99647.00
2023-05-04T11:22:20.039Z,99642.00
2023-05-04T11:23:56.762Z,99646.00
2023-05-04T11:25:32.427Z,99658.00
2023-05-04T11:27:05.759Z,99651.00
2023-05-04T11:28:39.507Z,99649.00
2023-05-04T11:30:13.867Z,99655.00
2023-05-04T11:31:55.684Z,99646.00
2023-05-04T11:33:28.787Z,99647.00
2023-05-04T11:35:04.265Z,99647.00
2023-05-04T11:36:39.030Z,99640.00
2023-05-04T11:38:14.385Z,99642.00
2023-05-04T11:39:47.703Z,99638.00
2023-05-04T11:41:21.016Z,99629.00
2023-05-04T11:42:56.944Z,99647.00
2023-05-04T11:44:30.523Z,99647.00
2023-05-04T11:46:04.681Z,99639.00
2023-05-04T11:47:39.032Z,99633.00
2023-05-04T11:49:12.264Z,99629.00
2023-05-04T11:50:47.693Z,99618.00
2023-05-04T11:52:25.728Z,99642.00
2023-05-04T11:54:01.056Z,99635.00
2023-05-04T11:55:34.815Z,99627.00
2023-05-04T11:57:07.973Z,99623.00
2023-05-04T11:58:41.037Z,99623.00
2023-05-04T12:00:16.149Z,99624.00
2023-05-04T12:01:49.391Z,99613.00
2023-05-04T12:03:39.214Z,99606.00
2023-05-04T12:05:14.975Z,99612.00
2023-05-04T12:06:50.143Z,99606.00
2023-05-04T12:08:26.015Z,99601.00
2023-05-04T12:09:59.089Z,99605.00
2023-05-04T12:11:32.568Z,99610.00
2023-05-04T12:13:17.796Z,99612.00
2023-05-04T12:14:53.531Z,99603.00
2023-05-04T12:16:27.085Z,99596.00
2023-05-04T12:18:02.841Z,99589.00
2023-05-04T12:19:36.841Z,99590.00
2023-05-04T12:21:12.188Z,99582.00
2023-05-04T12:22:46.657Z,99579.00
2023-05-04T12:24:21.623Z,99584.00
2023-05-04T12:25:58.007Z,99584.00
2023-05-04T12:27:31.679Z,99590.00
2023-05-04T12:29:04.810Z,99588.00
2023-05-04T12:30:38.211Z,99587.00
2023-05-04T12:32:11.610Z,99573.00
2023-05-04T12:33:45.308Z,99581.00
2023-05-04T12:35:18.499Z,99582.00
2023-05-04T12:36:52.670Z,99570.00
2023-05-04T12:38:27.663Z,99571.00
2023-05-04T12:40:00.729Z,99576.00
2023-05-04T12:41:34.136Z,99571.00
2023-05-04T12:43:07.359Z,99570.00
2023-05-04T12:44:41.003Z,99563.00
2023-05-04T12:46:14.141Z,99569.00
2023-05-04T12:47:47.317Z,99562.00
2023-05-04T12:49:21.273Z,99556.00
2023-05-04T12:50:55.916Z,99562.00
2023-05-04T12:52:29.032Z,99552.00
2023-05-04T12:54:03.749Z,99564.00
2023-05-04T12:55:37.026Z,99568.00
2023-05-04T12:57:11.175Z,99552.00
2023-05-04T12:58:44.334Z,99567.00
2023-05-04T13:00:18.271Z,99552.00
2023-05-04T13:01:51.563Z,99553.00
2023-05-04T13:03:24.966Z,99543.00
2023-05-04T13:04:58.193Z,99535.00
2023-05-04T13:06:31.647Z,99527.00
2023-05-04T13:08:04.841Z,99529.00
2023-05-04T13:09:39.951Z,99538.00
2023-05-04T13:11:13.035Z,99541.00
2023-05-04T13:12:46.633Z,99535.00
2023-05-04T13:14:19.763Z,99523.00
2023-05-04T13:15:52.959Z,99523.00
2023-05-04T13:17:26.646Z,99529.00
2023-05-04T13:19:00.202Z,99515.00
2023-05-04T13:20:33.489Z,99514.00
2023-05-04T13:22:06.687Z,99524.00
2023-05-04T13:23:39.772Z,99531.00
2023-05-04T13:25:14.991Z,99521.00
2023-05-04T13:26:48.186Z,99514.00
2023-05-04T13:28:21.456Z,99513.00
2023-05-04T13:29:54.842Z,99511.00
2023-05-04T13:31:28.346Z,99506.00
2023-05-04T13:33:02.534Z,99496.00
2023-05-04T13:34:38.802Z,99495.00
2023-05-04T13:36:11.965Z,99494.00
2023-05-04T13:37:45.164Z,99487.00
2023-05-04T13:39:22.587Z,99489.00
2023-05-04T13:40:57.313Z,99505.00
2023-05-04T13:42:30.399Z,99495.00
2023-05-04T13:44:03.541Z,99486.00
2023-05-04T13:45:36.581Z,99477.00
2023-05-04T13:47:10.437Z,99487.00
2023-05-04T13:48:43.682Z,99488.00
2023-05-04T13:50:17.255Z,99489.00
2023-05-04T13:51:50.310Z,99487.00
2023-05-04T13:53:24.544Z,99486.00
2023-05-04T13:54:57.893Z,99480.00
2023-05-04T13:56:32.333Z,99473.00
2023-05-04T13:58:05.447Z,99481.00
2023-05-04T13:59:38.599Z,99476.00
2023-05-04T14:01:11.916Z,99468.00
2023-05-04T14:02:45.259Z,99467.00
2023-05-04T14:04:18.407Z,99467.00
2023-05-04T14:05:52.737Z,99468.00
2023-05-04T14:07:26.180Z,99465.00
2023-05-04T14:08:59.382Z,99460.00
2023-05-04T14:10:32.585Z,99457.00
2023-05-04T14:12:08.081Z,99457.00
2023-05-04T14:13:41.220Z,99437.00
2023-05-04T14:15:16.416Z,99440.00
2023-05-04T14:16:49.977Z,99447.00
2023-05-04T14:18:23.414Z,99439.00
2023-05-04T14:19:58.670Z,99448.00
2023-05-04T14:21:31.916Z,99444.00
2023-05-04T14:23:05.056Z,99444.00
2023-05-04T14:24:38.182Z,99440.00
2023-05-04T14:26:11.398Z,99427.00
2023-05-04T14:27:46.068Z,99424.00
2023-05-04T14:29:19.071Z,99427.00
2023-05-04T14:30:52.310Z,99424.00
2023-05-04T14:32:25.738Z,99428.00
2023-05-04T14:33:59.064Z,99422.00
2023-05-04T14:35:32.165Z,99431.00
2023-05-04T14:37:05.325Z,99419.00
2023-05-04T14:38:38.850Z,99420.00
2023-05-04T14:40:13.246Z,99423.00
2023-05-04T14:41:46.297Z,99420.00
2023-05-04T14:43:20.954Z,99420.00
2023-05-04T14:44:54.024Z,99414.00
2023-05-04T14:46:27.455Z,99416.00
2023-05-04T14:48:00.586Z,99422.00
2023-05-04T14:49:37.253Z,99423.00
2023-05-04T14:51:13.811Z,99424.00
2023-05-04T14:52:47.040Z,99414.00
2023-05-04T14:54:20.536Z,99415.00
2023-05-04T14:56:04.469Z,99414.00
2023-05-04T14:57:52.664Z,99410.00
2023-05-04T14:59:27.439Z,99409.00
2023-05-04T15:01:00.878Z,99407.00
2023-05-04T15:02:34.325Z,99411.00
2023-05-04T15:04:07.445Z,99409.00
2023-05-04T15:05:40.649Z,99409.00
2023-05-04T15:07:15.922Z,99406.00
2023-05-04T15:08:49.011Z,99399.00
2023-05-04T15:10:22.335Z,99399.00
2023-05-04T15:11:55.572Z,99401.00
2023-05-04T15:13:28.677Z,99402.00
2023-05-04T15:15:03.141Z,99396.00
2023-05-04T15:16:37.116Z,99399.00
2023-05-04T15:18:11.451Z,99380.00
2023-05-04T15:19:44.700Z,99390.00
2023-05-04T15:21:17.776Z,99391.00
2023-05-04T15:22:53.705Z,99378.00
2023-05-04T15:24:27.288Z,99377.00
2023-05-04T15:26:01.138Z,99376.00
2023-05-04T15:27:34.298Z,99377.00
2023-05-04T15:29:07.511Z,99372.00
2023-05-04T15:30:42.899Z,99384.00
2023-05-04T15:32:16.095Z,99373.00
2023-05-04T15:33:49.802Z,99374.00
2023-05-04T15:35:23.463Z,99375.00
2023-05-04T15:36:57.203Z,99367.00
2023-05-04T15:38:30.482Z,99368.00
2023-05-04T15:40:05.688Z,99368.00
2023-05-04T15:41:39.103Z,99367.00
2023-05-04T15:43:12.494Z,99364.00
2023-05-04T15:44:45.669Z,99363.00
2023-05-04T15:46:20.536Z,99361.00
2023-05-04T15:47:54.120Z,99369.00
2023-05-04T15:49:27.609Z,99362.00
2023-05-04T15:51:01.066Z,99360.00
2023-05-04T15:52:34.274Z,99363.00
2023-05-04T15:54:07.920Z,99365.00
2023-05-04T15:55:41.141Z,99362.00
2023-05-04T15:57:14.883Z,99360.00
2023-05-04T15:58:48.108Z,99360.00
2023-05-04T16:00:22.423Z,99354.00
2023-05-04T16:01:57.093Z,99356.00
2023-05-04T16:03:31.724Z,99348.00
2023-05-04T16:05:05.284Z,99353.00
2023-05-04T16:06:38.487Z,99368.00
2023-05-04T16:08:11.658Z,99342.00
2023-05-04T16:09:45.049Z,99355.00
2023-05-04T16:11:18.462Z,99349.00
2023-05-04T16:12:51.705Z,99343.00
2023-05-04T16:14:24.963Z,99345.00
2023-05-04T16:15:58.868Z,99351.00
2023-05-04T16:17:35.121Z,99350.00
2023-05-04T16:19:10.853Z,99347.00
2023-05-04T16:20:45.052Z,99345.00
2023-05-04T16:22:18.151Z,99343.00
2023-05-04T16:23:51.733Z,99344.00
2023-05-04T16:25:24.830Z,99344.00
2023-05-04T16:26:58.026Z,99335.00
2023-05-04T16:28:31.158Z,99331.00
2023-05-04T16:30:05.011Z,99328.00
2023-05-04T16:31:38.593Z,99326.00
2023-05-04T16:33:14.692Z,99328.00
2023-05-04T16:34:47.947Z,99330.00
2023-05-04T16:36:21.084Z,99341.00
2023-05-04T16:37:54.469Z,99337.00
2023-05-04T16:39:31.382Z,99331.00
2023-05-04T16:41:04.660Z,99332.00
2023-05-04T16:42:36.844Z,99331.00
2023-05-04T16:44:09.944Z,99325.00
2023-05-04T16:45:43.147Z,99328.00
2023-05-04T16:47:16.248Z,99323.00
2023-05-04T16:48:50.785Z,99320.00
2023-05-04T16:50:24.148Z,99315.00
2023-05-04T16:51:57.248Z,99324.00
2023-05-04T16:53:30.328Z,99325.00
2023-05-04T16:55:03.636Z,99321.00
2023-05-04T16:56:37.208Z,99324.00
2023-05-04T16:58:10.770Z,99332.00
2023-05-04T16:59:43.850Z,99330.00
2023-05-04T17:01:17.079Z,99335.00
2023-05-04T17:02:49.510Z,99324.00
2023-05-04T17:04:25.125Z,99325.00
2023-05-04T17:05:58.188Z,99319.00
2023-05-04T17:07:31.691Z,99318.00
2023-05-04T17:09:05.619Z,99321.00
2023-05-04T17:10:38.780Z,99313.00
2023-05-04T17:12:11.870Z,99315.00
2023-05-04T17:13:45.319Z,99317.00
2023-05-04T17:15:18.437Z,99326.00
2023-05-04T17:16:51.903Z,99326.00
2023-05-04T17:18:25.080Z,99317.00
2023-05-04T17:19:59.828Z,99317.00
2023-05-04T17:21:32.851Z,99319.00
2023-05-04T17:23:06.911Z,99319.00
2023-05-04T17:24:39.033Z,99307.00
2023-05-04T17:26:12.188Z,99318.00
2023-05-04T17:27:45.501Z,99323.00
2023-05-04T17:29:18.648Z,99318.00
2023-05-04T17:30:51.772Z,99311.00
2023-05-04T17:32:25.009Z,99312.00
2023-05-04T17:33:58.072Z,99312.00
2023-05-04T17:35:32.752Z,99313.00
2023-05-04T17:37:05.786Z,99313.00
2023-05-04T17:38:39.462Z,99318.00
2023-05-04T17:40:14.739Z,99313.00
2023-05-04T17:41:48.793Z,99322.00
2023-05-04T17:43:21.980Z,99314.00
2023-05-04T17:44:55.312Z,99327.00
2023-05-04T17:46:29.389Z,99332.00
2023-05-04T17:48:02.596Z,99322.00
2023-05-04T17:49:35.789Z,99328.00
2023-05-04T17:51:10.664Z,99333.00
2023-05-04T17:52:43.802Z,99332.00
2023-05-04T17:54:17.310Z,99340.00
2023-05-04T17:55:50.412Z,99335.00
2023-05-04T17:57:23.525Z,99340.00
2023-05-04T17:58:56.587Z,99345.00
2023-05-04T18:00:29.680Z,99337.00
2023-05-04T18:02:03.116Z,99341.00
2023-05-04T18:03:36.626Z,99341.00
2023-05-04T18:05:10.866Z,99342.00
2023-05-04T18:06:45.443Z,99342.00
2023-05-04T18:08:18.557Z,99345.00
2023-05-04T18:09:51.710Z,99346.00
2023-05-04T18:11:24.833Z,99344.00
2023-05-04T18:13:00.336Z,99347.00
2023-05-04T18:14:33.540Z,99345.00
2023-05-04T18:16:07.285Z,99352.00
2023-05-04T18:17:40.499Z,99352.00
2023-05-04T18:19:13.948Z,99340.00
2023-05-04T18:20:47.109Z,99346.00
2023-05-04T18:22:21.551Z,99351.00
2023-05-04T18:23:54.657Z,99354.00
2023-05-04T18:25:28.046Z,99360.00